createdAt,value
2018-05-07T00:00:09.077Z,1017.7
2018-05-07T00:01:30.558Z,1017.7
2018-05-07T00:02:31.937Z,1017.8
2018-05-07T00:03:53.425Z,1017.7
2018-05-07T00:04:54.794Z,1017.8
2018-05-07T00:06:16.375Z,1017.7
2018-05-07T00:07:17.663Z,1017.7
2018-05-07T00:08:39.210Z,1017.7
2018-05-07T00:09:40.483Z,1017.7
2018-05-07T00:11:01.938Z,1017.7
2018-05-07T00:12:03.330Z,1017.7
2018-05-07T00:13:24.826Z,1017.7
2018-05-07T00:14:26.210Z,1017.7
2018-05-07T00:15:47.686Z,1017.7
2018-05-07T00:16:49.072Z,1017.7
2018-05-07T00:18:10.538Z,1017.7
2018-05-07T00:19:11.930Z,1017.7
2018-05-07T00:20:33.488Z,1017.7
2018-05-07T00:21:34.802Z,1017.7
2018-05-07T00:22:56.275Z,1017.6
2018-05-07T00:23:57.659Z,1017.7
2018-05-07T00:25:19.138Z,1017.6
2018-05-07T00:26:20.525Z,1017.7
2018-05-07T00:27:42.017Z,1017.6
2018-05-07T00:28:43.394Z,1017.7
2018-05-07T00:30:04.867Z,1017.6
2018-05-07T00:31:06.255Z,1017.7
2018-05-07T00:32:27.722Z,1017.6
2018-05-07T00:33:29.114Z,1017.6
2018-05-07T00:34:50.610Z,1017.6
2018-05-07T00:35:51.995Z,1017.6
2018-05-07T00:37:13.467Z,1017.6
2018-05-07T00:38:14.859Z,1017.6
2018-05-07T00:39:36.331Z,1017.5
2018-05-07T00:40:37.720Z,1017.6
2018-05-07T00:41:59.203Z,1017.5
2018-05-07T00:43:00.587Z,1017.6
2018-05-07T00:44:22.067Z,1017.6
2018-05-07T00:45:23.450Z,1017.6
2018-05-07T00:46:44.923Z,1017.6
2018-05-07T00:47:46.307Z,1017.6
2018-05-07T00:49:07.803Z,1017.6
2018-05-07T00:50:09.188Z,1017.6
2018-05-07T00:51:30.659Z,1017.6
2018-05-07T00:52:32.043Z,1017.6
2018-05-07T00:53:53.515Z,1017.6
2018-05-07T00:54:54.899Z,1017.6
2018-05-07T00:56:16.387Z,1017.6
2018-05-07T00:57:17.771Z,1017.6
2018-05-07T00:58:39.245Z,1017.6
2018-05-07T00:59:40.635Z,1017.6
2018-05-07T01:01:02.108Z,1017.6
2018-05-07T01:02:03.491Z,1017.6
2018-05-07T01:03:24.987Z,1017.6
2018-05-07T01:04:26.373Z,1017.6
2018-05-07T01:05:47.844Z,1017.6
2018-05-07T01:06:49.228Z,1017.6
2018-05-07T01:08:10.700Z,1017.6
2018-05-07T01:09:12.092Z,1017.6
2018-05-07T01:10:33.589Z,1017.6
2018-05-07T01:11:34.972Z,1017.7
2018-05-07T01:12:56.444Z,1017.6
2018-05-07T01:13:57.828Z,1017.6
2018-05-07T01:15:19.300Z,1017.6
2018-05-07T01:16:20.686Z,1017.6
2018-05-07T01:17:42.180Z,1017.6
2018-05-07T01:18:43.564Z,1017.6
2018-05-07T01:20:05.037Z,1017.6
2018-05-07T01:21:06.420Z,1017.7
2018-05-07T01:22:27.900Z,1017.6
2018-05-07T01:23:29.284Z,1017.6
2018-05-07T01:24:50.773Z,1017.6
2018-05-07T01:25:52.147Z,1017.6
2018-05-07T01:27:13.620Z,1017.6
2018-05-07T01:28:15.004Z,1017.6
2018-05-07T01:29:36.498Z,1017.7
2018-05-07T01:30:37.876Z,1017.6
2018-05-07T01:31:59.364Z,1017.7
2018-05-07T01:33:00.748Z,1017.7
2018-05-07T01:34:22.228Z,1017.7
2018-05-07T01:35:23.612Z,1017.6
2018-05-07T01:36:45.093Z,1017.6
2018-05-07T01:37:46.476Z,1017.6
2018-05-07T01:39:07.957Z,1017.7
2018-05-07T01:40:09.348Z,1017.7
2018-05-07T01:41:30.820Z,1017.6
2018-05-07T01:42:32.204Z,1017.6
2018-05-07T01:43:53.676Z,1017.6
2018-05-07T01:44:55.061Z,1017.6
2018-05-07T01:46:16.549Z,1017.6
2018-05-07T01:47:17.933Z,1017.6
2018-05-07T01:48:39.405Z,1017.6
2018-05-07T01:49:40.789Z,1017.6
2018-05-07T01:51:02.261Z,1017.6
2018-05-07T01:52:03.644Z,1017.6
2018-05-07T01:53:25.141Z,1017.6
2018-05-07T01:54:26.524Z,1017.6
2018-05-07T01:55:47.997Z,1017.7
2018-05-07T01:56:49.381Z,1017.6
2018-05-07T01:58:10.845Z,1017.6
2018-05-07T01:59:12.245Z,1017.6
2018-05-07T02:00:33.733Z,1017.6
2018-05-07T02:01:35.117Z,1017.6
2018-05-07T02:02:56.589Z,1017.6
2018-05-07T02:03:57.973Z,1017.6
2018-05-07T02:05:19.445Z,1017.6
2018-05-07T02:06:20.829Z,1017.6
2018-05-07T02:07:42.317Z,1017.6
2018-05-07T02:08:43.701Z,1017.5
2018-05-07T02:10:05.173Z,1017.5
2018-05-07T02:11:06.558Z,1017.5
2018-05-07T02:12:28.029Z,1017.5
2018-05-07T02:13:29.421Z,1017.5
2018-05-07T02:14:50.911Z,1017.5
2018-05-07T02:15:52.294Z,1017.5
2018-05-07T02:17:13.765Z,1017.5
2018-05-07T02:18:15.149Z,1017.5
2018-05-07T02:19:36.629Z,1017.5
2018-05-07T02:20:38.022Z,1017.5
2018-05-07T02:21:59.494Z,1017.5
2018-05-07T02:23:00.878Z,1017.5
2018-05-07T02:24:22.349Z,1017.5
2018-05-07T02:25:23.733Z,1017.5
2018-05-07T02:26:45.205Z,1017.5
2018-05-07T02:27:46.590Z,1017.5
2018-05-07T02:29:08.078Z,1017.5
2018-05-07T02:30:09.470Z,1017.4
2018-05-07T02:31:30.950Z,1017.5
2018-05-07T02:32:32.333Z,1017.5
2018-05-07T02:33:53.806Z,1017.4
2018-05-07T02:34:55.190Z,1017.4
2018-05-07T02:36:16.688Z,1017.5
2018-05-07T02:37:18.070Z,1017.5
2018-05-07T02:38:39.541Z,1017.4
2018-05-07T02:39:40.926Z,1017.4
2018-05-07T02:41:02.400Z,1017.5
2018-05-07T02:42:03.782Z,1017.5
2018-05-07T02:43:25.278Z,1017.5
2018-05-07T02:44:26.662Z,1017.5
2018-05-07T02:45:48.142Z,1017.5
2018-05-07T02:46:49.526Z,1017.5
2018-05-07T02:48:10.998Z,1017.5
2018-05-07T02:49:12.382Z,1017.5
2018-05-07T02:50:33.870Z,1017.4
2018-05-07T02:51:35.254Z,1017.4
2018-05-07T02:52:56.726Z,1017.4
2018-05-07T02:53:58.110Z,1017.4
2018-05-07T02:55:19.582Z,1017.4
2018-05-07T02:56:20.966Z,1017.4
2018-05-07T02:57:42.462Z,1017.4
2018-05-07T02:58:43.846Z,1017.3
2018-05-07T03:00:05.318Z,1017.4
2018-05-07T03:01:06.703Z,1017.4
2018-05-07T03:02:28.175Z,1017.4
2018-05-07T03:03:29.558Z,1017.4
2018-05-07T03:04:51.046Z,1017.3
2018-05-07T03:05:52.431Z,1017.4
2018-05-07T03:07:13.903Z,1017.4
2018-05-07T03:08:15.289Z,1017.4
2018-05-07T03:09:36.759Z,1017.3
2018-05-07T03:10:38.142Z,1017.3
2018-05-07T03:11:59.723Z,1017.3
2018-05-07T03:13:00.983Z,1017.4
2018-05-07T03:14:22.454Z,1017.3
2018-05-07T03:15:23.839Z,1017.3
2018-05-07T03:16:45.311Z,1017.3
2018-05-07T03:17:46.694Z,1017.3
2018-05-07T03:19:08.190Z,1017.3
2018-05-07T03:20:09.577Z,1017.3
2018-05-07T03:21:31.048Z,1017.3
2018-05-07T03:22:32.431Z,1017.3
2018-05-07T03:23:53.913Z,1017.2
2018-05-07T03:24:55.295Z,1017.2
2018-05-07T03:26:16.782Z,1017.2
2018-05-07T03:27:18.167Z,1017.2
2018-05-07T03:28:39.639Z,1017.2
2018-05-07T03:29:41.023Z,1017.2
2018-05-07T03:31:02.495Z,1017.2
2018-05-07T03:32:03.878Z,1017.2
2018-05-07T03:33:25.366Z,1017.2
2018-05-07T03:34:26.754Z,1017.1
2018-05-07T03:35:48.223Z,1017.2
2018-05-07T03:36:49.607Z,1017.2
2018-05-07T03:38:11.079Z,1017.2
2018-05-07T03:39:12.463Z,1017.2
2018-05-07T03:40:34.020Z,1017.2
2018-05-07T03:41:35.343Z,1017.2
2018-05-07T03:42:56.815Z,1017.2
2018-05-07T03:43:58.198Z,1017.2
2018-05-07T03:45:19.671Z,1017.2
2018-05-07T03:46:21.055Z,1017.2
2018-05-07T03:47:42.544Z,1017.2
2018-05-07T03:48:43.984Z,1017.2
2018-05-07T03:50:05.401Z,1017.2
2018-05-07T03:51:06.791Z,1017.2
2018-05-07T03:52:28.274Z,1017.2
2018-05-07T03:53:29.658Z,1017.1
2018-05-07T03:54:51.151Z,1017.2
2018-05-07T03:55:52.535Z,1017.1
2018-05-07T03:57:14.008Z,1017.1
2018-05-07T03:58:15.392Z,1017.1
2018-05-07T03:59:36.920Z,1017.1
2018-05-07T04:00:38.256Z,1017.1
2018-05-07T04:01:59.745Z,1017.1
2018-05-07T04:03:01.136Z,1017.1
2018-05-07T04:04:22.624Z,1017.0
2018-05-07T04:05:24.021Z,1017.0
2018-05-07T04:06:45.488Z,1017.0
2018-05-07T04:07:46.880Z,1017.0
2018-05-07T04:09:08.376Z,1017.0
2018-05-07T04:10:09.759Z,1017.0
2018-05-07T04:11:31.239Z,1017.0
2018-05-07T04:12:32.624Z,1017.1
2018-05-07T04:13:54.096Z,1017.0
2018-05-07T04:14:55.480Z,1017.0
2018-05-07T04:16:16.977Z,1017.0
2018-05-07T04:17:18.360Z,1017.0
2018-05-07T04:18:39.840Z,1017.0
2018-05-07T04:19:41.229Z,1017.0
2018-05-07T04:21:02.705Z,1017.0
2018-05-07T04:22:04.088Z,1017.0
2018-05-07T04:23:25.604Z,1017.0
2018-05-07T04:24:26.985Z,1017.0
2018-05-07T04:25:48.466Z,1017.0
2018-05-07T04:26:49.857Z,1017.0
2018-05-07T04:28:11.336Z,1017.0
2018-05-07T04:29:12.720Z,1017.0
2018-05-07T04:30:34.208Z,1017.0
2018-05-07T04:31:35.600Z,1017.0
2018-05-07T04:32:57.082Z,1017.0
2018-05-07T04:33:58.473Z,1017.0
2018-05-07T04:35:19.952Z,1017.0
2018-05-07T04:36:21.336Z,1017.0
2018-05-07T04:37:42.841Z,1017.0
2018-05-07T04:38:44.232Z,1017.0
2018-05-07T04:40:05.713Z,1017.0
2018-05-07T04:41:07.096Z,1017.0
2018-05-07T04:42:28.577Z,1017.0
2018-05-07T04:43:29.960Z,1017.1
2018-05-07T04:44:51.449Z,1017.0
2018-05-07T04:45:52.842Z,1017.0
2018-05-07T04:47:14.321Z,1017.1
2018-05-07T04:48:15.714Z,1017.1
2018-05-07T04:49:37.184Z,1017.1
2018-05-07T04:50:38.597Z,1017.1
2018-05-07T04:52:00.073Z,1017.1
2018-05-07T04:53:01.457Z,1017.1
2018-05-07T04:54:22.945Z,1017.0
2018-05-07T04:55:24.320Z,1017.0
2018-05-07T04:56:45.800Z,1017.1
2018-05-07T04:57:47.185Z,1017.1
2018-05-07T04:59:08.681Z,1017.0
2018-05-07T05:00:10.064Z,1017.1
2018-05-07T05:01:31.537Z,1017.1
2018-05-07T05:02:32.929Z,1017.1
2018-05-07T05:03:54.409Z,1017.1
2018-05-07T05:04:55.801Z,1017.0
2018-05-07T05:06:17.319Z,1017.0
2018-05-07T05:07:18.649Z,1017.0
2018-05-07T05:08:40.154Z,1017.1
2018-05-07T05:09:41.550Z,1017.0
2018-05-07T05:11:03.028Z,1017.0
2018-05-07T05:12:04.409Z,1017.0
2018-05-07T05:13:25.905Z,1017.0
2018-05-07T05:14:27.289Z,1017.0
2018-05-07T05:15:48.769Z,1017.0
2018-05-07T05:16:50.155Z,1017.0
2018-05-07T05:18:11.633Z,1017.0
2018-05-07T05:19:13.028Z,1017.0
2018-05-07T05:20:34.514Z,1017.0
2018-05-07T05:21:35.897Z,1017.0
2018-05-07T05:22:57.377Z,1017.0
2018-05-07T05:23:58.761Z,1017.0
2018-05-07T05:25:20.234Z,1017.1
2018-05-07T05:26:21.626Z,1017.1
2018-05-07T05:27:43.212Z,1017.1
2018-05-07T05:28:44.593Z,1017.1
2018-05-07T05:30:06.074Z,1017.1
2018-05-07T05:31:07.457Z,1017.1
2018-05-07T05:32:28.938Z,1017.1
2018-05-07T05:33:30.322Z,1017.1
2018-05-07T05:34:51.818Z,1017.1
2018-05-07T05:35:53.210Z,1017.0
2018-05-07T05:37:14.702Z,1017.0
2018-05-07T05:38:16.074Z,1017.0
2018-05-07T05:39:37.547Z,1017.1
2018-05-07T05:40:38.948Z,1017.0
2018-05-07T05:42:00.445Z,1017.1
2018-05-07T05:43:01.827Z,1017.0
2018-05-07T05:44:23.306Z,1017.1
2018-05-07T05:45:24.691Z,1017.1
2018-05-07T05:46:46.163Z,1017.1
2018-05-07T05:47:47.554Z,1017.1
2018-05-07T05:49:09.043Z,1017.0
2018-05-07T05:50:10.529Z,1017.0
2018-05-07T05:51:31.866Z,1017.0
2018-05-07T05:52:33.250Z,1017.0
2018-05-07T05:53:54.716Z,1017.0
2018-05-07T05:54:56.114Z,1017.0
2018-05-07T05:56:17.647Z,1017.0
2018-05-07T05:57:18.963Z,1017.0
2018-05-07T05:58:40.443Z,1017.0
2018-05-07T05:59:41.835Z,1017.0
2018-05-07T06:01:03.308Z,1017.0
2018-05-07T06:02:04.699Z,1017.0
2018-05-07T06:03:26.195Z,1016.9
2018-05-07T06:04:27.579Z,1016.9
2018-05-07T06:05:49.059Z,1016.9
2018-05-07T06:06:50.447Z,1017.0
2018-05-07T06:08:11.915Z,1016.9
2018-05-07T06:09:13.307Z,1016.9
2018-05-07T06:10:34.796Z,1016.9
2018-05-07T06:11:36.179Z,1017.0
2018-05-07T06:12:57.659Z,1016.9
2018-05-07T06:13:59.044Z,1017.0
2018-05-07T06:15:20.523Z,1017.0
2018-05-07T06:16:21.908Z,1017.0
2018-05-07T06:17:43.404Z,1017.0
2018-05-07T06:18:44.787Z,1017.0
2018-05-07T06:20:06.267Z,1017.0
2018-05-07T06:21:07.702Z,1017.0
2018-05-07T06:22:29.131Z,1017.0
2018-05-07T06:23:30.515Z,1017.0
2018-05-07T06:24:52.013Z,1017.0
2018-05-07T06:25:53.396Z,1017.0
2018-05-07T06:27:14.905Z,1017.0
2018-05-07T06:28:16.243Z,1017.0
2018-05-07T06:29:37.727Z,1017.0
2018-05-07T06:30:39.107Z,1017.0
2018-05-07T06:32:00.604Z,1017.0
2018-05-07T06:33:01.993Z,1017.0
2018-05-07T06:34:23.480Z,1017.0
2018-05-07T06:35:24.852Z,1017.0
2018-05-07T06:36:46.332Z,1017.0
2018-05-07T06:37:47.724Z,1017.0
2018-05-07T06:39:09.235Z,1017.0
2018-05-07T06:40:10.612Z,1017.0
2018-05-07T06:41:32.092Z,1017.0
2018-05-07T06:42:33.476Z,1017.0
2018-05-07T06:43:55.010Z,1017.0
2018-05-07T06:44:56.316Z,1017.0
2018-05-07T06:46:17.899Z,1017.0
2018-05-07T06:47:19.172Z,1017.0
2018-05-07T06:48:40.658Z,1017.0
2018-05-07T06:49:42.040Z,1017.0
2018-05-07T06:51:03.509Z,1017.0
2018-05-07T06:52:04.909Z,1017.0
2018-05-07T06:53:26.407Z,1017.0
2018-05-07T06:54:27.796Z,1017.0
2018-05-07T06:55:49.280Z,1017.0
2018-05-07T06:56:50.660Z,1017.0
2018-05-07T06:58:12.132Z,1017.0
2018-05-07T06:59:13.524Z,1017.0
2018-05-07T07:00:35.013Z,1017.0
2018-05-07T07:01:36.397Z,1017.0
2018-05-07T07:02:57.902Z,1017.0
2018-05-07T07:03:59.221Z,1017.0
2018-05-07T07:05:20.701Z,1017.0
2018-05-07T07:06:22.093Z,1017.0
2018-05-07T07:07:43.581Z,1017.0
2018-05-07T07:08:44.964Z,1017.0
2018-05-07T07:10:06.653Z,1017.0
2018-05-07T07:11:08.037Z,1017.0
2018-05-07T07:12:29.509Z,1017.1
2018-05-07T07:13:30.901Z,1017.0
2018-05-07T07:14:52.397Z,1017.0
2018-05-07T07:15:53.793Z,1017.0
2018-05-07T07:17:15.261Z,1017.0
2018-05-07T07:18:16.649Z,1017.0
2018-05-07T07:19:38.117Z,1017.0
2018-05-07T07:20:39.509Z,1017.0
2018-05-07T07:22:01.014Z,1017.0
2018-05-07T07:23:02.397Z,1017.0
2018-05-07T07:24:23.870Z,1017.0
2018-05-07T07:25:25.260Z,1017.0
2018-05-07T07:26:46.741Z,1016.9
2018-05-07T07:27:48.125Z,1016.9
2018-05-07T07:29:09.633Z,1016.9
2018-05-07T07:30:11.013Z,1016.9
2018-05-07T07:31:32.492Z,1016.9
2018-05-07T07:32:33.888Z,1016.9
2018-05-07T07:33:55.408Z,1016.9
2018-05-07T07:34:56.717Z,1016.9
2018-05-07T07:36:18.215Z,1016.9
2018-05-07T07:37:19.605Z,1016.9
2018-05-07T07:38:41.077Z,1016.9
2018-05-07T07:39:42.469Z,1016.9
2018-05-07T07:41:03.947Z,1016.9
2018-05-07T07:42:05.333Z,1016.9
2018-05-07T07:43:26.973Z,1016.9
2018-05-07T07:44:28.365Z,1016.9
2018-05-07T07:45:49.837Z,1016.9
2018-05-07T07:46:51.229Z,1016.9
2018-05-07T07:48:12.709Z,1016.9
2018-05-07T07:49:14.103Z,1016.9
2018-05-07T07:50:35.609Z,1016.8
2018-05-07T07:51:36.993Z,1016.9
2018-05-07T07:52:58.470Z,1016.9
2018-05-07T07:53:59.854Z,1016.9
2018-05-07T07:55:21.325Z,1016.9
2018-05-07T07:56:22.718Z,1016.9
2018-05-07T07:57:44.222Z,1016.9
2018-05-07T07:58:45.597Z,1016.9
2018-05-07T08:00:07.069Z,1016.9
2018-05-07T08:01:08.462Z,1016.9
2018-05-07T08:02:29.934Z,1016.9
2018-05-07T08:03:31.326Z,1016.9
2018-05-07T08:04:52.822Z,1016.9
2018-05-07T08:05:54.206Z,1016.9
2018-05-07T08:07:15.686Z,1016.9
2018-05-07T08:08:17.075Z,1016.9
2018-05-07T08:09:38.550Z,1016.9
2018-05-07T08:10:39.937Z,1016.9
2018-05-07T08:12:01.500Z,1016.9
2018-05-07T08:13:02.822Z,1016.8
2018-05-07T08:14:24.305Z,1016.8
2018-05-07T08:15:25.687Z,1016.9
2018-05-07T08:16:47.166Z,1016.9
2018-05-07T08:17:48.551Z,1016.8
2018-05-07T08:19:10.047Z,1016.8
2018-05-07T08:20:11.431Z,1016.9
2018-05-07T08:21:32.910Z,1016.8
2018-05-07T08:22:34.297Z,1016.8
2018-05-07T08:23:55.774Z,1016.8
2018-05-07T08:24:57.158Z,1016.8
2018-05-07T08:26:18.646Z,1016.8
2018-05-07T08:27:20.031Z,1016.8
2018-05-07T08:28:41.503Z,1016.8
2018-05-07T08:29:42.895Z,1016.7
2018-05-07T08:31:04.367Z,1016.7
2018-05-07T08:32:05.759Z,1016.7
2018-05-07T08:33:27.263Z,1016.7
2018-05-07T08:34:28.639Z,1016.7
2018-05-07T08:35:50.207Z,1016.7
2018-05-07T08:36:51.591Z,1016.7
2018-05-07T08:38:13.071Z,1016.6
2018-05-07T08:39:14.455Z,1016.6
2018-05-07T08:40:35.963Z,1016.6
2018-05-07T08:41:37.335Z,1016.6
2018-05-07T08:42:58.815Z,1016.6
2018-05-07T08:44:00.203Z,1016.6
2018-05-07T08:45:21.671Z,1016.6
2018-05-07T08:46:23.063Z,1016.6
2018-05-07T08:47:44.552Z,1016.6
2018-05-07T08:48:45.943Z,1016.6
2018-05-07T08:50:07.431Z,1016.6
2018-05-07T08:51:08.838Z,1016.6
2018-05-07T08:52:30.288Z,1016.6
2018-05-07T08:53:31.656Z,1016.5
2018-05-07T08:54:53.152Z,1016.6
2018-05-07T08:55:54.545Z,1016.5
2018-05-07T08:57:16.024Z,1016.5
2018-05-07T08:58:17.408Z,1016.5
2018-05-07T08:59:38.888Z,1016.5
2018-05-07T09:00:40.280Z,1016.5
2018-05-07T09:02:01.854Z,1016.4
2018-05-07T09:03:03.167Z,1016.4
2018-05-07T09:04:24.648Z,1016.4
2018-05-07T09:05:26.035Z,1016.4
2018-05-07T09:06:47.512Z,1016.4
2018-05-07T09:07:48.897Z,1016.4
2018-05-07T09:09:10.392Z,1016.4
2018-05-07T09:10:11.784Z,1016.4
2018-05-07T09:11:33.276Z,1016.4
2018-05-07T09:12:34.656Z,1016.4
2018-05-07T09:13:56.136Z,1016.4
2018-05-07T09:14:57.521Z,1016.3
2018-05-07T09:16:19.019Z,1016.3
2018-05-07T09:17:20.409Z,1016.3
2018-05-07T09:18:41.880Z,1016.3
2018-05-07T09:19:43.265Z,1016.4
2018-05-07T09:21:04.744Z,1016.3
2018-05-07T09:22:06.136Z,1016.2
2018-05-07T09:23:27.627Z,1016.2
2018-05-07T09:24:29.009Z,1016.2
2018-05-07T09:25:50.492Z,1016.2
2018-05-07T09:26:51.873Z,1016.2
2018-05-07T09:28:13.346Z,1016.2
2018-05-07T09:29:14.737Z,1016.2
2018-05-07T09:30:36.232Z,1016.2
2018-05-07T09:31:37.654Z,1016.1
2018-05-07T09:32:59.056Z,1016.1
2018-05-07T09:34:00.450Z,1016.1
2018-05-07T09:35:21.929Z,1016.1
2018-05-07T09:36:23.320Z,1016.1
2018-05-07T09:37:44.817Z,1016.1
2018-05-07T09:38:46.193Z,1016.1
2018-05-07T09:40:07.673Z,1016.1
2018-05-07T09:41:09.059Z,1016.1
2018-05-07T09:42:30.537Z,1016.1
2018-05-07T09:43:31.921Z,1016.1
2018-05-07T09:44:53.420Z,1016.1
2018-05-07T09:45:54.809Z,1016.1
2018-05-07T09:47:16.291Z,1016.1
2018-05-07T09:48:17.827Z,1016.1
2018-05-07T09:49:39.201Z,1016.1
2018-05-07T09:50:40.577Z,1016.0
2018-05-07T09:52:02.074Z,1016.0
2018-05-07T09:53:03.457Z,1016.0
2018-05-07T09:54:24.946Z,1016.0
2018-05-07T09:55:26.336Z,1016.0
2018-05-07T09:56:47.856Z,1015.9
2018-05-07T09:57:49.217Z,1016.0
2018-05-07T09:59:10.729Z,1016.0
2018-05-07T10:00:12.105Z,1016.0
2018-05-07T10:01:33.601Z,1016.0
2018-05-07T10:02:35.105Z,1016.0
2018-05-07T10:03:56.433Z,1015.9
2018-05-07T10:04:57.825Z,1015.9
2018-05-07T10:06:19.321Z,1015.9
2018-05-07T10:07:20.713Z,1015.9
2018-05-07T10:08:42.197Z,1015.8
2018-05-07T10:09:43.593Z,1015.8
2018-05-07T10:11:05.065Z,1015.8
2018-05-07T10:12:06.457Z,1015.8
2018-05-07T10:13:28.109Z,1015.7
2018-05-07T10:14:29.498Z,1015.7
2018-05-07T10:15:50.978Z,1015.7
2018-05-07T10:16:52.369Z,1015.7
2018-05-07T10:18:13.849Z,1015.7
2018-05-07T10:19:15.242Z,1015.7
2018-05-07T10:20:36.729Z,1015.7
2018-05-07T10:21:38.121Z,1015.7
2018-05-07T10:22:59.610Z,1015.6
2018-05-07T10:24:00.993Z,1015.6
2018-05-07T10:25:22.474Z,1015.6
2018-05-07T10:26:23.858Z,1015.6
2018-05-07T10:27:45.353Z,1015.7
2018-05-07T10:28:46.746Z,1015.6
2018-05-07T10:30:08.225Z,1015.6
2018-05-07T10:31:09.618Z,1015.6
2018-05-07T10:32:31.093Z,1015.6
2018-05-07T10:33:32.482Z,1015.6
2018-05-07T10:34:53.981Z,1015.6
2018-05-07T10:35:55.362Z,1015.5
2018-05-07T10:37:16.836Z,1015.5
2018-05-07T10:38:18.226Z,1015.5
2018-05-07T10:39:39.706Z,1015.5
2018-05-07T10:40:41.097Z,1015.5
2018-05-07T10:42:02.598Z,1015.5
2018-05-07T10:43:03.987Z,1015.5
2018-05-07T10:44:25.471Z,1015.5
2018-05-07T10:45:26.858Z,1015.5
2018-05-07T10:46:48.338Z,1015.5
2018-05-07T10:47:49.729Z,1015.5
2018-05-07T10:49:11.294Z,1015.5
2018-05-07T10:50:12.610Z,1015.4
2018-05-07T10:51:34.082Z,1015.4
2018-05-07T10:52:35.474Z,1015.5
2018-05-07T10:53:56.962Z,1015.4
2018-05-07T10:54:58.354Z,1015.4
2018-05-07T10:56:19.853Z,1015.3
2018-05-07T10:57:21.242Z,1015.3
2018-05-07T10:58:42.722Z,1015.3
2018-05-07T10:59:44.114Z,1015.3
2018-05-07T11:01:05.597Z,1015.2
2018-05-07T11:02:06.986Z,1015.3
2018-05-07T11:03:28.481Z,1015.2
2018-05-07T11:04:29.873Z,1015.2
2018-05-07T11:05:51.356Z,1015.2
2018-05-07T11:06:52.751Z,1015.2
2018-05-07T11:08:14.226Z,1015.2
2018-05-07T11:09:15.618Z,1015.2
2018-05-07T11:10:37.218Z,1015.1
2018-05-07T11:11:38.610Z,1015.2
2018-05-07T11:13:00.091Z,1015.1
2018-05-07T11:14:01.482Z,1015.1
2018-05-07T11:15:22.962Z,1015.1
2018-05-07T11:16:24.355Z,1015.0
2018-05-07T11:17:45.859Z,1015.0
2018-05-07T11:18:47.234Z,1015.0
2018-05-07T11:20:08.730Z,1015.0
2018-05-07T11:21:10.114Z,1015.0
2018-05-07T11:22:31.594Z,1015.0
2018-05-07T11:23:32.986Z,1014.9
2018-05-07T11:24:54.491Z,1014.9
2018-05-07T11:25:55.882Z,1014.9
2018-05-07T11:27:17.363Z,1015.0
2018-05-07T11:28:18.755Z,1014.9
2018-05-07T11:29:40.235Z,1014.9
2018-05-07T11:30:41.626Z,1014.9
2018-05-07T11:32:03.123Z,1014.9
2018-05-07T11:33:04.515Z,1014.9
2018-05-07T11:34:25.995Z,1014.9
2018-05-07T11:35:27.387Z,1014.9
2018-05-07T11:36:48.859Z,1014.9
2018-05-07T11:37:50.251Z,1014.9
2018-05-07T11:39:11.795Z,1014.9
2018-05-07T11:40:13.099Z,1014.9
2018-05-07T11:41:34.587Z,1014.9
2018-05-07T11:42:35.979Z,1014.9
2018-05-07T11:43:57.459Z,1014.9
2018-05-07T11:44:58.843Z,1014.9
2018-05-07T11:46:20.331Z,1014.9
2018-05-07T11:47:21.750Z,1014.9
2018-05-07T11:48:43.203Z,1014.9
2018-05-07T11:49:44.595Z,1014.8
2018-05-07T11:51:06.075Z,1014.9
2018-05-07T11:52:07.468Z,1014.8
2018-05-07T11:53:28.963Z,1014.8
2018-05-07T11:54:30.348Z,1014.7
2018-05-07T11:55:51.830Z,1014.7
2018-05-07T11:56:53.222Z,1014.7
2018-05-07T11:58:14.699Z,1014.7
2018-05-07T11:59:16.091Z,1014.7
2018-05-07T12:00:37.595Z,1014.7
2018-05-07T12:01:38.987Z,1014.7
2018-05-07T12:03:00.471Z,1014.7
2018-05-07T12:04:01.859Z,1014.7
2018-05-07T12:05:23.339Z,1014.7
2018-05-07T12:06:24.736Z,1014.7
2018-05-07T12:07:46.231Z,1014.7
2018-05-07T12:08:47.613Z,1014.6
2018-05-07T12:10:09.087Z,1014.6
2018-05-07T12:11:10.476Z,1014.6
2018-05-07T12:12:31.956Z,1014.6
2018-05-07T12:13:33.348Z,1014.7
2018-05-07T12:14:54.836Z,1014.7
2018-05-07T12:15:56.310Z,1014.7
2018-05-07T12:17:17.661Z,1014.7
2018-05-07T12:18:19.053Z,1014.6
2018-05-07T12:19:40.532Z,1014.6
2018-05-07T12:20:41.916Z,1014.6
2018-05-07T12:22:03.404Z,1014.6
2018-05-07T12:23:04.796Z,1014.5
2018-05-07T12:24:26.282Z,1014.5
2018-05-07T12:25:27.668Z,1014.5
2018-05-07T12:26:49.149Z,1014.5
2018-05-07T12:27:50.541Z,1014.5
2018-05-07T12:29:12.029Z,1014.5
2018-05-07T12:30:13.421Z,1014.5
2018-05-07T12:31:34.913Z,1014.5
2018-05-07T12:32:36.253Z,1014.4
2018-05-07T12:33:57.732Z,1014.4
2018-05-07T12:34:59.125Z,1014.4
2018-05-07T12:36:20.621Z,1014.4
2018-05-07T12:37:22.005Z,1014.3
2018-05-07T12:38:43.485Z,1014.3
2018-05-07T12:39:44.877Z,1014.3
2018-05-07T12:41:06.359Z,1014.3
2018-05-07T12:42:07.749Z,1014.3
2018-05-07T12:43:29.245Z,1014.3
2018-05-07T12:44:30.629Z,1014.3
2018-05-07T12:45:52.110Z,1014.2
2018-05-07T12:46:53.574Z,1014.3
2018-05-07T12:48:14.941Z,1014.2
2018-05-07T12:49:16.333Z,1014.2
2018-05-07T12:50:37.821Z,1014.2
2018-05-07T12:51:39.214Z,1014.2
2018-05-07T12:53:00.693Z,1014.2
2018-05-07T12:54:02.085Z,1014.2
2018-05-07T12:55:23.565Z,1014.2
2018-05-07T12:56:24.960Z,1014.2
2018-05-07T12:57:46.454Z,1014.1
2018-05-07T12:58:47.838Z,1014.1
2018-05-07T13:00:09.318Z,1014.1
2018-05-07T13:01:10.710Z,1014.1
2018-05-07T13:02:32.193Z,1014.1
2018-05-07T13:03:33.583Z,1014.0
2018-05-07T13:04:55.071Z,1014.0
2018-05-07T13:05:56.515Z,1014.0
2018-05-07T13:07:17.950Z,1014.0
2018-05-07T13:08:19.335Z,1014.0
2018-05-07T13:09:40.813Z,1013.9
2018-05-07T13:10:42.205Z,1014.0
2018-05-07T13:12:03.694Z,1014.0
2018-05-07T13:13:05.125Z,1013.9
2018-05-07T13:14:26.530Z,1013.9
2018-05-07T13:15:27.910Z,1013.9
2018-05-07T13:16:49.390Z,1013.9
2018-05-07T13:17:50.781Z,1013.9
2018-05-07T13:19:12.286Z,1013.9
2018-05-07T13:20:13.678Z,1013.8
2018-05-07T13:21:35.166Z,1013.8
2018-05-07T13:22:36.558Z,1013.8
2018-05-07T13:23:58.154Z,1013.8
2018-05-07T13:24:59.544Z,1013.8
2018-05-07T13:26:21.038Z,1013.8
2018-05-07T13:27:22.431Z,1013.8
2018-05-07T13:28:43.911Z,1013.7
2018-05-07T13:29:45.294Z,1013.7
2018-05-07T13:31:07.007Z,1013.7
2018-05-07T13:32:08.401Z,1013.7
2018-05-07T13:33:29.943Z,1013.7
2018-05-07T13:34:31.334Z,1013.7
2018-05-07T13:35:53.902Z,1013.6
2018-05-07T13:36:55.346Z,1013.6
2018-05-07T13:38:16.702Z,1013.6
2018-05-07T13:39:18.094Z,1013.6
2018-05-07T13:40:39.590Z,1013.6
2018-05-07T13:41:40.984Z,1013.6
2018-05-07T13:43:02.462Z,1013.5
2018-05-07T13:44:03.854Z,1013.5
2018-05-07T13:45:25.534Z,1013.5
2018-05-07T13:46:26.939Z,1013.5
2018-05-07T13:47:48.430Z,1013.5
2018-05-07T13:48:49.826Z,1013.4
2018-05-07T13:50:11.303Z,1013.5
2018-05-07T13:51:12.779Z,1013.4
2018-05-07T13:52:34.478Z,1013.4
2018-05-07T13:53:35.871Z,1013.4
2018-05-07T13:54:57.390Z,1013.3
2018-05-07T13:55:58.786Z,1013.3
2018-05-07T13:57:20.287Z,1013.3
2018-05-07T13:58:21.872Z,1013.3
2018-05-07T13:59:43.350Z,1013.3
2018-05-07T14:00:44.751Z,1013.3
2018-05-07T14:02:06.247Z,1013.3
2018-05-07T14:03:07.639Z,1013.3
2018-05-07T14:04:29.742Z,1013.2
2018-05-07T14:05:31.187Z,1013.2
2018-05-07T14:06:53.023Z,1013.2
2018-05-07T14:07:54.423Z,1013.2
2018-05-07T14:09:15.911Z,1013.2
2018-05-07T14:10:17.328Z,1013.2
2018-05-07T14:11:38.779Z,1013.2
2018-05-07T14:12:40.167Z,1013.1
2018-05-07T14:14:01.648Z,1013.1
2018-05-07T14:15:03.044Z,1013.1
2018-05-07T14:16:24.536Z,1013.1
2018-05-07T14:17:25.927Z,1013.1
2018-05-07T14:18:47.483Z,1013.0
2018-05-07T14:19:48.799Z,1013.1
2018-05-07T14:21:10.280Z,1013.1
2018-05-07T14:22:11.671Z,1013.1
2018-05-07T14:23:33.159Z,1013.1
2018-05-07T14:24:34.544Z,1013.1
2018-05-07T14:25:56.024Z,1013.0
2018-05-07T14:26:57.704Z,1013.0
2018-05-07T14:28:19.187Z,1013.0
2018-05-07T14:29:20.645Z,1013.0
2018-05-07T14:30:42.177Z,1012.9
2018-05-07T14:31:43.573Z,1013.0
2018-05-07T14:33:05.052Z,1013.0
2018-05-07T14:34:06.440Z,1013.0
2018-05-07T14:35:27.919Z,1013.0
2018-05-07T14:36:29.312Z,1012.9
2018-05-07T14:37:50.800Z,1012.9
2018-05-07T14:38:52.262Z,1012.9
2018-05-07T14:40:13.647Z,1012.9
2018-05-07T14:41:15.032Z,1012.9
2018-05-07T14:42:36.513Z,1012.9
2018-05-07T14:43:37.904Z,1012.8
2018-05-07T14:44:59.399Z,1012.8
2018-05-07T14:46:01.039Z,1012.8
2018-05-07T14:47:22.519Z,1012.8
2018-05-07T14:48:23.917Z,1012.8
2018-05-07T14:49:45.395Z,1012.8
2018-05-07T14:50:46.784Z,1012.7